sensor_id;sensor_type;location;lat;lon;timestamp;P1;durP1;ratioP1;P2;durP2;ratioP2
46491;SDS011;32206;51.446;6.792;2023-03-19T00:09:22;3.92;;;1.70;;
46491;SDS011;32206;51.446;6.792;2023-03-19T00:11:48;4.22;;;1.88;;
46491;SDS011;32206;51.446;6.792;2023-03-19T00:14:14;2.47;;;2.13;;
46491;SDS011;32206;51.446;6.792;2023-03-19T00:22:57;4.68;;;2.22;;
46491;SDS011;32206;51.446;6.792;2023-03-19T00:25:23;4.05;;;2.22;;
46491;SDS011;32206;51.446;6.792;2023-03-19T00:27:48;7.20;;;2.92;;
46491;SDS011;32206;51.446;6.792;2023-03-19T00:30:15;5.53;;;2.58;;
46491;SDS011;32206;51.446;6.792;2023-03-19T00:32:41;6.90;;;2.75;;
46491;SDS011;32206;51.446;6.792;2023-03-19T00:35:07;5.40;;;3.40;;
46491;SDS011;32206;51.446;6.792;2023-03-19T00:37:33;7.85;;;2.53;;
46491;SDS011;32206;51.446;6.792;2023-03-19T00:43:24;7.35;;;2.33;;
46491;SDS011;32206;51.446;6.792;2023-03-19T00:45:51;3.22;;;2.92;;
46491;SDS011;32206;51.446;6.792;2023-03-19T00:51:38;2.63;;;2.25;;
46491;SDS011;32206;51.446;6.792;2023-03-19T00:54:07;4.93;;;2.25;;
46491;SDS011;32206;51.446;6.792;2023-03-19T00:56:35;4.47;;;2.38;;
46491;SDS011;32206;51.446;6.792;2023-03-19T00:59:01;2.47;;;1.77;;
46491;SDS011;32206;51.446;6.792;2023-03-19T01:01:26;6.88;;;2.13;;
46491;SDS011;32206;51.446;6.792;2023-03-19T01:03:52;4.60;;;2.10;;
46491;SDS011;32206;51.446;6.792;2023-03-19T01:06:18;4.63;;;1.98;;
46491;SDS011;32206;51.446;6.792;2023-03-19T01:12:02;2.70;;;1.95;;
46491;SDS011;32206;51.446;6.792;2023-03-19T01:14:29;6.35;;;1.60;;
46491;SDS011;32206;51.446;6.792;2023-03-19T01:16:55;4.00;;;2.00;;
46491;SDS011;32206;51.446;6.792;2023-03-19T01:19:21;3.97;;;2.15;;
46491;SDS011;32206;51.446;6.792;2023-03-19T01:21:47;3.50;;;2.22;;
46491;SDS011;32206;51.446;6.792;2023-03-19T01:24:13;3.72;;;1.58;;
46491;SDS011;32206;51.446;6.792;2023-03-19T01:26:40;3.90;;;1.75;;
46491;SDS011;32206;51.446;6.792;2023-03-19T01:29:06;3.38;;;1.65;;
46491;SDS011;32206;51.446;6.792;2023-03-19T01:31:33;1.95;;;1.60;;
46491;SDS011;32206;51.446;6.792;2023-03-19T01:34:04;5.68;;;1.70;;
46491;SDS011;32206;51.446;6.792;2023-03-19T01:36:30;8.48;;;1.77;;
46491;SDS011;32206;51.446;6.792;2023-03-19T01:38:56;4.50;;;1.67;;
46491;SDS011;32206;51.446;6.792;2023-03-19T01:41:22;3.70;;;2.25;;
46491;SDS011;32206;51.446;6.792;2023-03-19T01:43:48;3.05;;;1.63;;
46491;SDS011;32206;51.446;6.792;2023-03-19T01:46:30;4.90;;;1.65;;
46491;SDS011;32206;51.446;6.792;2023-03-19T01:48:59;3.83;;;2.00;;
46491;SDS011;32206;51.446;6.792;2023-03-19T01:51:27;1.90;;;1.65;;
46491;SDS011;32206;51.446;6.792;2023-03-19T01:53:56;5.45;;;1.98;;
46491;SDS011;32206;51.446;6.792;2023-03-19T01:59:51;3.65;;;2.15;;
46491;SDS011;32206;51.446;6.792;2023-03-19T02:09:03;4.22;;;1.83;;
46491;SDS011;32206;51.446;6.792;2023-03-19T02:11:29;4.70;;;2.22;;
46491;SDS011;32206;51.446;6.792;2023-03-19T02:13:55;4.22;;;2.00;;
46491;SDS011;32206;51.446;6.792;2023-03-19T02:16:21;2.22;;;1.73;;
46491;SDS011;32206;51.446;6.792;2023-03-19T02:22:09;6.10;;;2.40;;
46491;SDS011;32206;51.446;6.792;2023-03-19T02:24:40;2.85;;;2.13;;
46491;SDS011;32206;51.446;6.792;2023-03-19T02:27:13;6.63;;;2.58;;
46491;SDS011;32206;51.446;6.792;2023-03-19T02:29:46;4.05;;;2.60;;
46491;SDS011;32206;51.446;6.792;2023-03-19T02:38:56;4.65;;;2.13;;
46491;SDS011;32206;51.446;6.792;2023-03-19T02:41:46;2.72;;;1.75;;
46491;SDS011;32206;51.446;6.792;2023-03-19T02:44:12;5.55;;;2.40;;
46491;SDS011;32206;51.446;6.792;2023-03-19T02:46:38;2.45;;;1.83;;
46491;SDS011;32206;51.446;6.792;2023-03-19T02:49:04;7.05;;;2.35;;
46491;SDS011;32206;51.446;6.792;2023-03-19T02:51:30;3.40;;;2.35;;
46491;SDS011;32206;51.446;6.792;2023-03-19T02:53:55;6.55;;;2.53;;
46491;SDS011;32206;51.446;6.792;2023-03-19T02:59:43;3.70;;;2.13;;
46491;SDS011;32206;51.446;6.792;2023-03-19T03:02:09;3.85;;;2.58;;
46491;SDS011;32206;51.446;6.792;2023-03-19T03:07:57;4.45;;;2.22;;
46491;SDS011;32206;51.446;6.792;2023-03-19T03:10:23;7.93;;;2.47;;
46491;SDS011;32206;51.446;6.792;2023-03-19T03:12:49;6.18;;;2.55;;
46491;SDS011;32206;51.446;6.792;2023-03-19T03:15:15;5.75;;;2.47;;
46491;SDS011;32206;51.446;6.792;2023-03-19T03:17:42;7.70;;;2.05;;
46491;SDS011;32206;51.446;6.792;2023-03-19T03:20:09;3.30;;;2.10;;
46491;SDS011;32206;51.446;6.792;2023-03-19T03:22:38;3.25;;;2.25;;
46491;SDS011;32206;51.446;6.792;2023-03-19T03:25:04;5.32;;;2.40;;
46491;SDS011;32206;51.446;6.792;2023-03-19T03:27:31;7.68;;;2.13;;
46491;SDS011;32206;51.446;6.792;2023-03-19T03:29:58;6.18;;;2.50;;
46491;SDS011;32206;51.446;6.792;2023-03-19T03:32:24;4.63;;;2.97;;
46491;SDS011;32206;51.446;6.792;2023-03-19T03:34:50;5.28;;;2.42;;
46491;SDS011;32206;51.446;6.792;2023-03-19T03:37:16;5.47;;;2.30;;
46491;SDS011;32206;51.446;6.792;2023-03-19T03:39:42;7.68;;;2.65;;
46491;SDS011;32206;51.446;6.792;2023-03-19T03:45:30;6.30;;;2.10;;
46491;SDS011;32206;51.446;6.792;2023-03-19T03:47:56;8.38;;;2.53;;
46491;SDS011;32206;51.446;6.792;2023-03-19T03:50:22;7.70;;;2.42;;
46491;SDS011;32206;51.446;6.792;2023-03-19T03:52:47;4.53;;;2.30;;
46491;SDS011;32206;51.446;6.792;2023-03-19T03:55:13;5.50;;;2.00;;
46491;SDS011;32206;51.446;6.792;2023-03-19T04:01:01;7.55;;;2.72;;
46491;SDS011;32206;51.446;6.792;2023-03-19T04:06:50;3.70;;;2.28;;
46491;SDS011;32206;51.446;6.792;2023-03-19T04:09:15;4.35;;;2.35;;
46491;SDS011;32206;51.446;6.792;2023-03-19T04:18:22;3.95;;;2.33;;
46491;SDS011;32206;51.446;6.792;2023-03-19T04:20:48;5.45;;;2.30;;
46491;SDS011;32206;51.446;6.792;2023-03-19T04:23:14;1.83;;;1.70;;
46491;SDS011;32206;51.446;6.792;2023-03-19T04:25:39;2.88;;;2.10;;
46491;SDS011;32206;51.446;6.792;2023-03-19T04:31:27;4.18;;;2.38;;
46491;SDS011;32206;51.446;6.792;2023-03-19T04:33:53;6.30;;;3.03;;
46491;SDS011;32206;51.446;6.792;2023-03-19T04:36:18;3.47;;;2.10;;
46491;SDS011;32206;51.446;6.792;2023-03-19T04:38:45;4.30;;;1.88;;
46491;SDS011;32206;51.446;6.792;2023-03-19T04:41:11;5.40;;;2.60;;
46491;SDS011;32206;51.446;6.792;2023-03-19T04:43:38;5.70;;;2.50;;
46491;SDS011;32206;51.446;6.792;2023-03-19T04:46:04;7.20;;;2.40;;
46491;SDS011;32206;51.446;6.792;2023-03-19T04:48:32;4.38;;;2.60;;
46491;SDS011;32206;51.446;6.792;2023-03-19T04:50:59;2.17;;;1.98;;
46491;SDS011;32206;51.446;6.792;2023-03-19T04:53:27;2.67;;;2.45;;
46491;SDS011;32206;51.446;6.792;2023-03-19T04:55:53;3.80;;;2.03;;
46491;SDS011;32206;51.446;6.792;2023-03-19T04:58:18;2.20;;;2.00;;
46491;SDS011;32206;51.446;6.792;2023-03-19T05:00:45;5.43;;;2.33;;
46491;SDS011;32206;51.446;6.792;2023-03-19T05:03:12;3.92;;;1.95;;
46491;SDS011;32206;51.446;6.792;2023-03-19T05:05:38;4.50;;;2.67;;
46491;SDS011;32206;51.446;6.792;2023-03-19T05:08:04;3.30;;;2.08;;
46491;SDS011;32206;51.446;6.792;2023-03-19T05:10:29;7.32;;;3.13;;
46491;SDS011;32206;51.446;6.792;2023-03-19T05:12:56;3.90;;;1.67;;
46491;SDS011;32206;51.446;6.792;2023-03-19T05:15:22;2.20;;;2.00;;
46491;SDS011;32206;51.446;6.792;2023-03-19T05:17:47;2.90;;;2.70;;
46491;SDS011;32206;51.446;6.792;2023-03-19T05:20:13;2.90;;;2.20;;
46491;SDS011;32206;51.446;6.792;2023-03-19T05:22:39;2.35;;;1.80;;
46491;SDS011;32206;51.446;6.792;2023-03-19T05:25:05;2.42;;;2.20;;
46491;SDS011;32206;51.446;6.792;2023-03-19T05:30:54;2.08;;;1.65;;
46491;SDS011;32206;51.446;6.792;2023-03-19T05:33:20;5.35;;;1.80;;
46491;SDS011;32206;51.446;6.792;2023-03-19T05:35:46;4.57;;;1.65;;
46491;SDS011;32206;51.446;6.792;2023-03-19T05:38:12;3.65;;;1.70;;
46491;SDS011;32206;51.446;6.792;2023-03-19T05:40:38;3.90;;;1.73;;
46491;SDS011;32206;51.446;6.792;2023-03-19T05:43:06;4.80;;;1.98;;
46491;SDS011;32206;51.446;6.792;2023-03-19T05:45:33;3.72;;;1.73;;
46491;SDS011;32206;51.446;6.792;2023-03-19T05:48:00;4.57;;;2.78;;
46491;SDS011;32206;51.446;6.792;2023-03-19T05:50:27;3.03;;;2.20;;
46491;SDS011;32206;51.446;6.792;2023-03-19T05:52:53;3.47;;;2.40;;
46491;SDS011;32206;51.446;6.792;2023-03-19T05:55:19;6.22;;;2.53;;
46491;SDS011;32206;51.446;6.792;2023-03-19T06:04:03;3.72;;;2.95;;
46491;SDS011;32206;51.446;6.792;2023-03-19T06:06:29;4.43;;;3.17;;
46491;SDS011;32206;51.446;6.792;2023-03-19T06:08:55;4.97;;;2.97;;
46491;SDS011;32206;51.446;6.792;2023-03-19T06:11:21;4.63;;;4.15;;
46491;SDS011;32206;51.446;6.792;2023-03-19T06:17:09;4.50;;;4.03;;
46491;SDS011;32206;51.446;6.792;2023-03-19T06:19:35;3.83;;;3.47;;
46491;SDS011;32206;51.446;6.792;2023-03-19T06:22:00;6.53;;;3.25;;
46491;SDS011;32206;51.446;6.792;2023-03-19T06:24:26;6.13;;;3.80;;
46491;SDS011;32206;51.446;6.792;2023-03-19T06:26:54;4.38;;;3.50;;
46491;SDS011;32206;51.446;6.792;2023-03-19T06:29:20;4.65;;;3.63;;
46491;SDS011;32206;51.446;6.792;2023-03-19T06:31:46;4.93;;;3.58;;
46491;SDS011;32206;51.446;6.792;2023-03-19T06:34:11;5.68;;;2.92;;
46491;SDS011;32206;51.446;6.792;2023-03-19T06:39:59;4.82;;;2.75;;
46491;SDS011;32206;51.446;6.792;2023-03-19T06:49:09;3.28;;;2.00;;
46491;SDS011;32206;51.446;6.792;2023-03-19T06:51:35;3.30;;;3.00;;
46491;SDS011;32206;51.446;6.792;2023-03-19T06:54:01;4.18;;;2.50;;
46491;SDS011;32206;51.446;6.792;2023-03-19T06:56:27;3.17;;;2.88;;
46491;SDS011;32206;51.446;6.792;2023-03-19T06:58:53;4.13;;;2.50;;
46491;SDS011;32206;51.446;6.792;2023-03-19T07:01:19;3.78;;;2.72;;
46491;SDS011;32206;51.446;6.792;2023-03-19T07:03:45;3.65;;;2.50;;
46491;SDS011;32206;51.446;6.792;2023-03-19T07:06:11;4.65;;;2.92;;
46491;SDS011;32206;51.446;6.792;2023-03-19T07:08:37;5.70;;;2.90;;
46491;SDS011;32206;51.446;6.792;2023-03-19T07:11:03;2.50;;;2.30;;
46491;SDS011;32206;51.446;6.792;2023-03-19T07:19:52;6.55;;;3.85;;
46491;SDS011;32206;51.446;6.792;2023-03-19T07:22:18;2.97;;;2.75;;
46491;SDS011;32206;51.446;6.792;2023-03-19T07:31:15;3.10;;;2.80;;
46491;SDS011;32206;51.446;6.792;2023-03-19T07:33:41;5.68;;;2.97;;
46491;SDS011;32206;51.446;6.792;2023-03-19T07:46:13;4.68;;;3.60;;
46491;SDS011;32206;51.446;6.792;2023-03-19T07:48:38;8.57;;;4.82;;
46491;SDS011;32206;51.446;6.792;2023-03-19T07:51:04;4.60;;;4.20;;
46491;SDS011;32206;51.446;6.792;2023-03-19T07:53:31;8.98;;;6.10;;
46491;SDS011;32206;51.446;6.792;2023-03-19T07:55:57;5.05;;;4.55;;
46491;SDS011;32206;51.446;6.792;2023-03-19T08:05:07;62.17;;;37.80;;
46491;SDS011;32206;51.446;6.792;2023-03-19T08:10:55;15.77;;;9.18;;
46491;SDS011;32206;51.446;6.792;2023-03-19T08:20:09;4.72;;;4.32;;
46491;SDS011;32206;51.446;6.792;2023-03-19T08:22:37;8.88;;;6.18;;
46491;SDS011;32206;51.446;6.792;2023-03-19T08:25:04;7.10;;;5.35;;
46491;SDS011;32206;51.446;6.792;2023-03-19T08:27:31;5.72;;;4.32;;
46491;SDS011;32206;51.446;6.792;2023-03-19T08:29:59;3.17;;;2.90;;
46491;SDS011;32206;51.446;6.792;2023-03-19T08:32:28;4.35;;;3.38;;
46491;SDS011;32206;51.446;6.792;2023-03-19T08:34:53;4.10;;;3.78;;
46491;SDS011;32206;51.446;6.792;2023-03-19T08:37:19;3.28;;;3.00;;
46491;SDS011;32206;51.446;6.792;2023-03-19T08:39:45;5.85;;;2.80;;
46491;SDS011;32206;51.446;6.792;2023-03-19T08:42:11;7.43;;;2.97;;
46491;SDS011;32206;51.446;6.792;2023-03-19T08:44:37;21.90;;;12.82;;
46491;SDS011;32206;51.446;6.792;2023-03-19T08:47:02;4.55;;;4.10;;
46491;SDS011;32206;51.446;6.792;2023-03-19T08:49:28;3.33;;;3.03;;
46491;SDS011;32206;51.446;6.792;2023-03-19T08:55:16;3.90;;;3.55;;
46491;SDS011;32206;51.446;6.792;2023-03-19T08:57:43;4.00;;;3.58;;
46491;SDS011;32206;51.446;6.792;2023-03-19T09:00:08;3.63;;;3.35;;
46491;SDS011;32206;51.446;6.792;2023-03-19T09:02:35;4.53;;;4.13;;
46491;SDS011;32206;51.446;6.792;2023-03-19T09:05:00;4.45;;;4.05;;
46491;SDS011;32206;51.446;6.792;2023-03-19T09:10:53;4.20;;;3.55;;
46491;SDS011;32206;51.446;6.792;2023-03-19T09:13:19;5.40;;;4.03;;
46491;SDS011;32206;51.446;6.792;2023-03-19T09:15:45;5.85;;;3.45;;
46491;SDS011;32206;51.446;6.792;2023-03-19T09:18:11;3.60;;;2.95;;
46491;SDS011;32206;51.446;6.792;2023-03-19T09:20:36;4.30;;;3.83;;
46491;SDS011;32206;51.446;6.792;2023-03-19T09:26:30;11.05;;;6.25;;
46491;SDS011;32206;51.446;6.792;2023-03-19T09:28:56;4.15;;;3.80;;
46491;SDS011;32206;51.446;6.792;2023-03-19T09:31:21;5.28;;;4.80;;
46491;SDS011;32206;51.446;6.792;2023-03-19T09:33:47;5.78;;;4.97;;
46491;SDS011;32206;51.446;6.792;2023-03-19T09:36:13;5.45;;;4.90;;
46491;SDS011;32206;51.446;6.792;2023-03-19T09:45:24;2.97;;;2.78;;
46491;SDS011;32206;51.446;6.792;2023-03-19T09:47:53;3.85;;;3.42;;
46491;SDS011;32206;51.446;6.792;2023-03-19T09:50:24;3.30;;;3.05;;
46491;SDS011;32206;51.446;6.792;2023-03-19T09:55:42;3.50;;;3.17;;
46491;SDS011;32206;51.446;6.792;2023-03-19T10:04:18;4.13;;;3.83;;
46491;SDS011;32206;51.446;6.792;2023-03-19T10:07:06;3.30;;;3.10;;
46491;SDS011;32206;51.446;6.792;2023-03-19T10:15:14;3.95;;;2.97;;
46491;SDS011;32206;51.446;6.792;2023-03-19T10:17:59;3.85;;;3.20;;
46491;SDS011;32206;51.446;6.792;2023-03-19T10:29:37;6.00;;;3.35;;
46491;SDS011;32206;51.446;6.792;2023-03-19T10:34:49;4.57;;;3.50;;
46491;SDS011;32206;51.446;6.792;2023-03-19T10:37:18;4.65;;;4.28;;
46491;SDS011;32206;51.446;6.792;2023-03-19T10:39:47;5.47;;;4.88;;
46491;SDS011;32206;51.446;6.792;2023-03-19T10:47:42;6.82;;;3.20;;
46491;SDS011;32206;51.446;6.792;2023-03-19T10:50:15;4.38;;;3.55;;
46491;SDS011;32206;51.446;6.792;2023-03-19T10:52:43;3.70;;;3.40;;
46491;SDS011;32206;51.446;6.792;2023-03-19T10:55:14;3.88;;;3.53;;
46491;SDS011;32206;51.446;6.792;2023-03-19T10:57:43;3.83;;;3.53;;
46491;SDS011;32206;51.446;6.792;2023-03-19T11:07:02;5.88;;;5.28;;
46491;SDS011;32206;51.446;6.792;2023-03-19T11:13:16;4.82;;;4.43;;
46491;SDS011;32206;51.446;6.792;2023-03-19T11:22:34;6.07;;;4.28;;
46491;SDS011;32206;51.446;6.792;2023-03-19T11:28:24;4.45;;;3.88;;
46491;SDS011;32206;51.446;6.792;2023-03-19T11:30:59;4.72;;;4.25;;
46491;SDS011;32206;51.446;6.792;2023-03-19T12:00:12;6.90;;;4.68;;
46491;SDS011;32206;51.446;6.792;2023-03-19T12:05:46;5.40;;;4.03;;
46491;SDS011;32206;51.446;6.792;2023-03-19T12:12:01;4.50;;;3.78;;
46491;SDS011;32206;51.446;6.792;2023-03-19T12:23:29;4.32;;;3.97;;
46491;SDS011;32206;51.446;6.792;2023-03-19T12:26:06;5.25;;;4.65;;
46491;SDS011;32206;51.446;6.792;2023-03-19T12:28:34;5.40;;;4.40;;
46491;SDS011;32206;51.446;6.792;2023-03-19T12:36:53;3.92;;;3.63;;
46491;SDS011;32206;51.446;6.792;2023-03-19T12:39:45;5.25;;;2.90;;
46491;SDS011;32206;51.446;6.792;2023-03-19T12:42:33;5.35;;;3.45;;
46491;SDS011;32206;51.446;6.792;2023-03-19T12:45:03;6.45;;;3.13;;
46491;SDS011;32206;51.446;6.792;2023-03-19T12:47:40;5.97;;;3.50;;
46491;SDS011;32206;51.446;6.792;2023-03-19T12:50:08;3.45;;;3.15;;
46491;SDS011;32206;51.446;6.792;2023-03-19T12:52:38;3.40;;;3.10;;
46491;SDS011;32206;51.446;6.792;2023-03-19T12:55:12;4.18;;;3.20;;
46491;SDS011;32206;51.446;6.792;2023-03-19T12:57:45;3.47;;;2.67;;
46491;SDS011;32206;51.446;6.792;2023-03-19T13:00:16;5.43;;;3.15;;
46491;SDS011;32206;51.446;6.792;2023-03-19T13:05:37;2.92;;;2.45;;
46491;SDS011;32206;51.446;6.792;2023-03-19T13:11:26;2.25;;;1.90;;
46491;SDS011;32206;51.446;6.792;2023-03-19T13:13:59;2.35;;;2.13;;
46491;SDS011;32206;51.446;6.792;2023-03-19T13:21:52;2.58;;;1.83;;
46491;SDS011;32206;51.446;6.792;2023-03-19T13:24:38;2.08;;;1.95;;
46491;SDS011;32206;51.446;6.792;2023-03-19T13:27:10;6.80;;;2.08;;
46491;SDS011;32206;51.446;6.792;2023-03-19T13:29:51;1.80;;;1.63;;
46491;SDS011;32206;51.446;6.792;2023-03-19T13:33:00;3.28;;;1.92;;
46491;SDS011;32206;51.446;6.792;2023-03-19T13:43:18;2.58;;;1.77;;
46491;SDS011;32206;51.446;6.792;2023-03-19T13:45:51;2.45;;;1.73;;
46491;SDS011;32206;51.446;6.792;2023-03-19T13:48:50;2.17;;;1.83;;
46491;SDS011;32206;51.446;6.792;2023-03-19T13:56:19;3.92;;;1.75;;
46491;SDS011;32206;51.446;6.792;2023-03-19T13:58:50;1.70;;;1.60;;
46491;SDS011;32206;51.446;6.792;2023-03-19T14:04:37;2.08;;;1.90;;
46491;SDS011;32206;51.446;6.792;2023-03-19T14:06:54;2.60;;;1.80;;
46491;SDS011;32206;51.446;6.792;2023-03-19T14:11:53;2.08;;;1.88;;
46491;SDS011;32206;51.446;6.792;2023-03-19T14:14:20;2.65;;;2.28;;
46491;SDS011;32206;51.446;6.792;2023-03-19T14:16:48;2.80;;;2.00;;
46491;SDS011;32206;51.446;6.792;2023-03-19T14:19:17;4.97;;;2.30;;
46491;SDS011;32206;51.446;6.792;2023-03-19T14:21:47;4.45;;;2.42;;
46491;SDS011;32206;51.446;6.792;2023-03-19T14:32:59;2.60;;;2.40;;
46491;SDS011;32206;51.446;6.792;2023-03-19T14:35:31;3.65;;;2.40;;
46491;SDS011;32206;51.446;6.792;2023-03-19T14:38:09;3.35;;;2.25;;
46491;SDS011;32206;51.446;6.792;2023-03-19T14:40:46;6.07;;;3.22;;
46491;SDS011;32206;51.446;6.792;2023-03-19T14:46:03;3.45;;;1.90;;
46491;SDS011;32206;51.446;6.792;2023-03-19T15:00:26;3.45;;;2.22;;
46491;SDS011;32206;51.446;6.792;2023-03-19T15:02:53;2.40;;;1.90;;
46491;SDS011;32206;51.446;6.792;2023-03-19T15:05:24;1.77;;;1.67;;
46491;SDS011;32206;51.446;6.792;2023-03-19T15:07:59;3.40;;;2.38;;
46491;SDS011;32206;51.446;6.792;2023-03-19T15:10:53;1.58;;;1.48;;
46491;SDS011;32206;51.446;6.792;2023-03-19T15:19:23;1.52;;;1.38;;
46491;SDS011;32206;51.446;6.792;2023-03-19T15:21:50;3.38;;;1.88;;
46491;SDS011;32206;51.446;6.792;2023-03-19T15:27:38;2.05;;;1.65;;
46491;SDS011;32206;51.446;6.792;2023-03-19T15:30:19;1.85;;;1.75;;
46491;SDS011;32206;51.446;6.792;2023-03-19T15:32:47;2.65;;;2.20;;
46491;SDS011;32206;51.446;6.792;2023-03-19T15:35:12;8.50;;;2.45;;
46491;SDS011;32206;51.446;6.792;2023-03-19T15:37:39;2.85;;;1.90;;
46491;SDS011;32206;51.446;6.792;2023-03-19T15:46:18;2.80;;;2.38;;
46491;SDS011;32206;51.446;6.792;2023-03-19T15:51:21;2.35;;;2.03;;
46491;SDS011;32206;51.446;6.792;2023-03-19T15:53:48;3.33;;;2.63;;
46491;SDS011;32206;51.446;6.792;2023-03-19T15:59:30;4.55;;;2.78;;
46491;SDS011;32206;51.446;6.792;2023-03-19T16:01:58;4.45;;;2.25;;
46491;SDS011;32206;51.446;6.792;2023-03-19T16:04:26;3.67;;;2.65;;
46491;SDS011;32206;51.446;6.792;2023-03-19T16:06:53;3.30;;;2.65;;
46491;SDS011;32206;51.446;6.792;2023-03-19T16:09:23;4.32;;;2.45;;
46491;SDS011;32206;51.446;6.792;2023-03-19T16:12:21;5.25;;;2.50;;
46491;SDS011;32206;51.446;6.792;2023-03-19T16:17:52;27.33;;;19.17;;
46491;SDS011;32206;51.446;6.792;2023-03-19T16:20:18;8.05;;;6.60;;
46491;SDS011;32206;51.446;6.792;2023-03-19T16:22:53;5.28;;;3.53;;
46491;SDS011;32206;51.446;6.792;2023-03-19T16:25:22;3.72;;;3.42;;
46491;SDS011;32206;51.446;6.792;2023-03-19T16:27:54;7.22;;;2.88;;
46491;SDS011;32206;51.446;6.792;2023-03-19T16:30:21;5.55;;;2.53;;
46491;SDS011;32206;51.446;6.792;2023-03-19T16:33:01;2.95;;;2.33;;
46491;SDS011;32206;51.446;6.792;2023-03-19T16:35:28;5.75;;;2.20;;
46491;SDS011;32206;51.446;6.792;2023-03-19T16:40:35;2.58;;;1.77;;
46491;SDS011;32206;51.446;6.792;2023-03-19T16:46:31;2.90;;;2.28;;
46491;SDS011;32206;51.446;6.792;2023-03-19T16:48:58;3.85;;;1.95;;
46491;SDS011;32206;51.446;6.792;2023-03-19T16:51:23;4.43;;;2.38;;
46491;SDS011;32206;51.446;6.792;2023-03-19T16:53:49;5.65;;;2.58;;
46491;SDS011;32206;51.446;6.792;2023-03-19T16:56:15;4.15;;;2.63;;
46491;SDS011;32206;51.446;6.792;2023-03-19T16:58:43;5.05;;;2.22;;
46491;SDS011;32206;51.446;6.792;2023-03-19T17:01:11;4.15;;;2.97;;
46491;SDS011;32206;51.446;6.792;2023-03-19T17:03:43;7.18;;;2.30;;
46491;SDS011;32206;51.446;6.792;2023-03-19T17:06:12;6.68;;;2.65;;
46491;SDS011;32206;51.446;6.792;2023-03-19T17:08:40;3.72;;;2.53;;
46491;SDS011;32206;51.446;6.792;2023-03-19T17:11:06;3.38;;;2.50;;
46491;SDS011;32206;51.446;6.792;2023-03-19T17:13:49;3.45;;;2.53;;
46491;SDS011;32206;51.446;6.792;2023-03-19T17:16:16;5.95;;;4.10;;
46491;SDS011;32206;51.446;6.792;2023-03-19T17:18:42;17.98;;;10.82;;
46491;SDS011;32206;51.446;6.792;2023-03-19T17:21:42;6.03;;;3.00;;
46491;SDS011;32206;51.446;6.792;2023-03-19T17:24:20;13.68;;;3.05;;
46491;SDS011;32206;51.446;6.792;2023-03-19T17:26:51;11.10;;;9.95;;
46491;SDS011;32206;51.446;6.792;2023-03-19T17:29:17;16.38;;;10.15;;
46491;SDS011;32206;51.446;6.792;2023-03-19T17:31:44;12.13;;;8.25;;
46491;SDS011;32206;51.446;6.792;2023-03-19T17:34:11;24.75;;;15.70;;
46491;SDS011;32206;51.446;6.792;2023-03-19T17:36:38;5.60;;;3.63;;
46491;SDS011;32206;51.446;6.792;2023-03-19T17:39:04;11.30;;;3.05;;
46491;SDS011;32206;51.446;6.792;2023-03-19T17:41:31;7.13;;;2.70;;
46491;SDS011;32206;51.446;6.792;2023-03-19T17:47:10;7.07;;;1.48;;
46491;SDS011;32206;51.446;6.792;2023-03-19T17:49:36;6.63;;;1.95;;
46491;SDS011;32206;51.446;6.792;2023-03-19T17:52:19;7.47;;;2.50;;
46491;SDS011;32206;51.446;6.792;2023-03-19T17:54:47;5.18;;;2.40;;
46491;SDS011;32206;51.446;6.792;2023-03-19T17:57:13;6.85;;;2.67;;
46491;SDS011;32206;51.446;6.792;2023-03-19T18:03:02;4.43;;;2.60;;
46491;SDS011;32206;51.446;6.792;2023-03-19T18:12:21;18.13;;;10.43;;
46491;SDS011;32206;51.446;6.792;2023-03-19T18:14:47;15.93;;;9.57;;
46491;SDS011;32206;51.446;6.792;2023-03-19T18:17:15;19.63;;;10.80;;
46491;SDS011;32206;51.446;6.792;2023-03-19T18:19:43;11.55;;;8.35;;
46491;SDS011;32206;51.446;6.792;2023-03-19T18:22:12;19.88;;;12.40;;
46491;SDS011;32206;51.446;6.792;2023-03-19T18:24:39;31.05;;;17.02;;
46491;SDS011;32206;51.446;6.792;2023-03-19T18:27:05;14.18;;;7.63;;
46491;SDS011;32206;51.446;6.792;2023-03-19T18:32:56;17.10;;;9.70;;
46491;SDS011;32206;51.446;6.792;2023-03-19T18:35:45;13.82;;;8.32;;
46491;SDS011;32206;51.446;6.792;2023-03-19T18:38:12;11.18;;;4.95;;
46491;SDS011;32206;51.446;6.792;2023-03-19T18:40:43;5.32;;;2.45;;
46491;SDS011;32206;51.446;6.792;2023-03-19T18:49:53;12.88;;;8.13;;
46491;SDS011;32206;51.446;6.792;2023-03-19T18:52:21;14.43;;;9.35;;
46491;SDS011;32206;51.446;6.792;2023-03-19T18:54:47;17.30;;;10.32;;
46491;SDS011;32206;51.446;6.792;2023-03-19T18:57:12;17.73;;;10.52;;
46491;SDS011;32206;51.446;6.792;2023-03-19T18:59:39;16.83;;;10.23;;
46491;SDS011;32206;51.446;6.792;2023-03-19T19:04:49;20.67;;;11.88;;
46491;SDS011;32206;51.446;6.792;2023-03-19T19:10:57;19.38;;;11.48;;
46491;SDS011;32206;51.446;6.792;2023-03-19T19:13:29;18.25;;;11.02;;
46491;SDS011;32206;51.446;6.792;2023-03-19T19:15:57;16.80;;;11.32;;
46491;SDS011;32206;51.446;6.792;2023-03-19T19:28:30;18.00;;;12.02;;
46491;SDS011;32206;51.446;6.792;2023-03-19T19:34:57;18.13;;;12.30;;
46491;SDS011;32206;51.446;6.792;2023-03-19T19:37:22;17.52;;;11.55;;
46491;SDS011;32206;51.446;6.792;2023-03-19T19:39:48;23.95;;;12.65;;
46491;SDS011;32206;51.446;6.792;2023-03-19T19:42:15;18.63;;;11.45;;
46491;SDS011;32206;51.446;6.792;2023-03-19T19:44:50;22.42;;;13.00;;
46491;SDS011;32206;51.446;6.792;2023-03-19T19:47:18;21.20;;;12.63;;
46491;SDS011;32206;51.446;6.792;2023-03-19T19:49:43;19.15;;;11.75;;
46491;SDS011;32206;51.446;6.792;2023-03-19T19:52:16;15.82;;;9.93;;
46491;SDS011;32206;51.446;6.792;2023-03-19T19:54:43;20.50;;;11.40;;
46491;SDS011;32206;51.446;6.792;2023-03-19T20:03:04;19.10;;;11.50;;
46491;SDS011;32206;51.446;6.792;2023-03-19T20:05:31;18.10;;;10.82;;
46491;SDS011;32206;51.446;6.792;2023-03-19T20:07:58;16.63;;;11.20;;
46491;SDS011;32206;51.446;6.792;2023-03-19T20:10:26;20.15;;;11.90;;
46491;SDS011;32206;51.446;6.792;2023-03-19T20:12:54;17.65;;;12.27;;
46491;SDS011;32206;51.446;6.792;2023-03-19T20:18:44;18.85;;;13.00;;
46491;SDS011;32206;51.446;6.792;2023-03-19T20:21:12;21.70;;;13.23;;
46491;SDS011;32206;51.446;6.792;2023-03-19T20:23:39;20.27;;;12.65;;
46491;SDS011;32206;51.446;6.792;2023-03-19T20:32:46;14.48;;;11.35;;
46491;SDS011;32206;51.446;6.792;2023-03-19T20:35:19;14.13;;;10.98;;
46491;SDS011;32206;51.446;6.792;2023-03-19T20:51:23;14.63;;;11.23;;
46491;SDS011;32206;51.446;6.792;2023-03-19T20:53:50;16.65;;;11.55;;
46491;SDS011;32206;51.446;6.792;2023-03-19T20:56:17;14.30;;;11.75;;
46491;SDS011;32206;51.446;6.792;2023-03-19T20:58:45;16.45;;;11.88;;
46491;SDS011;32206;51.446;6.792;2023-03-19T21:04:34;20.17;;;13.82;;
46491;SDS011;32206;51.446;6.792;2023-03-19T21:06:59;13.77;;;11.20;;
46491;SDS011;32206;51.446;6.792;2023-03-19T21:09:25;18.65;;;12.55;;
46491;SDS011;32206;51.446;6.792;2023-03-19T21:11:51;17.48;;;13.13;;
46491;SDS011;32206;51.446;6.792;2023-03-19T21:14:16;16.40;;;12.40;;
46491;SDS011;32206;51.446;6.792;2023-03-19T21:16:42;15.43;;;11.68;;
46491;SDS011;32206;51.446;6.792;2023-03-19T21:19:08;17.90;;;12.23;;
46491;SDS011;32206;51.446;6.792;2023-03-19T21:21:34;17.40;;;12.13;;
46491;SDS011;32206;51.446;6.792;2023-03-19T21:24:11;16.23;;;12.20;;
46491;SDS011;32206;51.446;6.792;2023-03-19T21:26:41;20.25;;;13.02;;
46491;SDS011;32206;51.446;6.792;2023-03-19T21:29:20;21.27;;;12.10;;
46491;SDS011;32206;51.446;6.792;2023-03-19T21:31:52;16.90;;;12.45;;
46491;SDS011;32206;51.446;6.792;2023-03-19T21:34:18;18.13;;;12.10;;
46491;SDS011;32206;51.446;6.792;2023-03-19T21:36:44;19.52;;;11.70;;
46491;SDS011;32206;51.446;6.792;2023-03-19T21:42:32;18.63;;;12.93;;
46491;SDS011;32206;51.446;6.792;2023-03-19T21:44:58;22.10;;;13.20;;
46491;SDS011;32206;51.446;6.792;2023-03-19T21:47:24;20.27;;;14.38;;